sensor_id;sensor_type;location;lat;lon;timestamp;P1;durP1;ratioP1;P2;durP2;ratioP2
72621;SDS011;60665;53.506;9.582;2023-02-10T05:00:37;30.65;;;10.32;;
72621;SDS011;60665;53.506;9.582;2023-02-10T05:03:02;29.00;;;11.32;;
72621;SDS011;60665;53.506;9.582;2023-02-10T05:05:28;34.58;;;12.43;;
72621;SDS011;60665;53.506;9.582;2023-02-10T05:07:53;36.08;;;13.20;;
72621;SDS011;60665;53.506;9.582;2023-02-10T05:10:19;35.70;;;13.60;;
72621;SDS011;60665;53.506;9.582;2023-02-10T05:12:45;39.00;;;14.45;;
72621;SDS011;60665;53.506;9.582;2023-02-10T05:15:10;36.60;;;13.90;;
72621;SDS011;60665;53.506;9.582;2023-02-10T05:17:38;32.53;;;12.75;;
72621;SDS011;60665;53.506;9.582;2023-02-10T05:20:03;32.33;;;12.90;;
72621;SDS011;60665;53.506;9.582;2023-02-10T05:22:29;34.35;;;12.90;;
72621;SDS011;60665;53.506;9.582;2023-02-10T05:24:55;36.05;;;13.35;;
72621;SDS011;60665;53.506;9.582;2023-02-10T05:27:22;34.28;;;13.00;;
72621;SDS011;60665;53.506;9.582;2023-02-10T05:29:48;28.83;;;12.60;;
72621;SDS011;60665;53.506;9.582;2023-02-10T05:32:13;38.13;;;12.20;;
72621;SDS011;60665;53.506;9.582;2023-02-10T05:34:39;33.08;;;11.95;;
72621;SDS011;60665;53.506;9.582;2023-02-10T05:37:04;35.45;;;12.27;;
72621;SDS011;60665;53.506;9.582;2023-02-10T05:39:30;27.92;;;12.07;;
72621;SDS011;60665;53.506;9.582;2023-02-10T05:41:56;27.00;;;10.85;;
72621;SDS011;60665;53.506;9.582;2023-02-10T05:44:23;28.85;;;11.10;;
72621;SDS011;60665;53.506;9.582;2023-02-10T05:46:49;32.28;;;12.13;;
72621;SDS011;60665;53.506;9.582;2023-02-10T05:49:15;33.35;;;12.02;;
72621;SDS011;60665;53.506;9.582;2023-02-10T05:51:41;27.15;;;11.35;;
72621;SDS011;60665;53.506;9.582;2023-02-10T05:54:07;33.65;;;11.88;;
72621;SDS011;60665;53.506;9.582;2023-02-10T05:56:32;35.88;;;12.07;;
72621;SDS011;60665;53.506;9.582;2023-02-10T05:58:58;36.22;;;11.73;;
72621;SDS011;60665;53.506;9.582;2023-02-10T06:01:23;36.42;;;11.48;;
72621;SDS011;60665;53.506;9.582;2023-02-10T06:03:49;33.63;;;12.93;;
72621;SDS011;60665;53.506;9.582;2023-02-10T06:06:14;34.00;;;11.82;;
72621;SDS011;60665;53.506;9.582;2023-02-10T06:08:41;31.70;;;13.07;;
72621;SDS011;60665;53.506;9.582;2023-02-10T06:11:06;36.20;;;12.00;;
72621;SDS011;60665;53.506;9.582;2023-02-10T06:13:32;29.15;;;11.32;;
72621;SDS011;60665;53.506;9.582;2023-02-10T06:15:58;34.03;;;12.07;;
72621;SDS011;60665;53.506;9.582;2023-02-10T06:18:23;31.13;;;12.55;;
72621;SDS011;60665;53.506;9.582;2023-02-10T06:20:49;35.75;;;12.65;;
72621;SDS011;60665;53.506;9.582;2023-02-10T06:23:16;31.67;;;11.75;;
72621;SDS011;60665;53.506;9.582;2023-02-10T06:25:42;31.33;;;12.68;;
72621;SDS011;60665;53.506;9.582;2023-02-10T06:28:07;30.85;;;12.45;;
72621;SDS011;60665;53.506;9.582;2023-02-10T06:30:33;31.13;;;13.00;;
72621;SDS011;60665;53.506;9.582;2023-02-10T06:32:58;29.70;;;11.48;;
72621;SDS011;60665;53.506;9.582;2023-02-10T06:35:24;27.42;;;11.30;;
72621;SDS011;60665;53.506;9.582;2023-02-10T06:37:49;32.42;;;11.75;;
72621;SDS011;60665;53.506;9.582;2023-02-10T06:40:14;30.45;;;11.60;;
72621;SDS011;60665;53.506;9.582;2023-02-10T06:42:40;27.50;;;11.45;;
72621;SDS011;60665;53.506;9.582;2023-02-10T06:45:06;38.60;;;11.95;;
72621;SDS011;60665;53.506;9.582;2023-02-10T06:47:33;32.00;;;12.38;;
72621;SDS011;60665;53.506;9.582;2023-02-10T06:49:59;32.35;;;11.20;;
72621;SDS011;60665;53.506;9.582;2023-02-10T06:52:25;29.35;;;11.30;;
72621;SDS011;60665;53.506;9.582;2023-02-10T06:54:51;34.70;;;12.13;;
72621;SDS011;60665;53.506;9.582;2023-02-10T06:57:17;32.13;;;12.18;;
72621;SDS011;60665;53.506;9.582;2023-02-10T06:59:43;32.05;;;12.13;;
72621;SDS011;60665;53.506;9.582;2023-02-10T07:02:12;27.35;;;11.02;;
72621;SDS011;60665;53.506;9.582;2023-02-10T07:04:38;30.98;;;11.07;;
72621;SDS011;60665;53.506;9.582;2023-02-10T16:29:46;15.25;;;5.60;;
72621;SDS011;60665;53.506;9.582;2023-02-10T16:32:12;20.67;;;6.47;;
72621;SDS011;60665;53.506;9.582;2023-02-10T16:34:38;16.33;;;5.72;;
72621;SDS011;60665;53.506;9.582;2023-02-10T16:37:03;18.27;;;6.90;;
72621;SDS011;60665;53.506;9.582;2023-02-10T16:39:29;18.15;;;6.90;;
72621;SDS011;60665;53.506;9.582;2023-02-10T16:41:55;19.30;;;6.78;;
72621;SDS011;60665;53.506;9.582;2023-02-10T16:44:21;18.92;;;6.75;;
72621;SDS011;60665;53.506;9.582;2023-02-10T16:46:47;17.20;;;6.50;;
72621;SDS011;60665;53.506;9.582;2023-02-10T16:49:13;14.25;;;5.60;;
72621;SDS011;60665;53.506;9.582;2023-02-10T16:51:39;16.83;;;6.28;;
72621;SDS011;60665;53.506;9.582;2023-02-10T16:54:05;15.43;;;5.43;;
72621;SDS011;60665;53.506;9.582;2023-02-10T16:56:37;15.57;;;6.10;;
72621;SDS011;60665;53.506;9.582;2023-02-10T16:59:03;15.10;;;5.28;;
72621;SDS011;60665;53.506;9.582;2023-02-10T17:01:29;15.50;;;5.82;;
72621;SDS011;60665;53.506;9.582;2023-02-10T17:03:58;23.08;;;6.38;;
72621;SDS011;60665;53.506;9.582;2023-02-10T17:06:24;14.20;;;5.78;;
72621;SDS011;60665;53.506;9.582;2023-02-10T17:08:50;12.82;;;5.15;;
72621;SDS011;60665;53.506;9.582;2023-02-10T17:11:16;13.25;;;5.55;;
72621;SDS011;60665;53.506;9.582;2023-02-10T17:13:41;14.57;;;5.85;;
72621;SDS011;60665;53.506;9.582;2023-02-10T17:16:25;14.57;;;5.22;;
72621;SDS011;60665;53.506;9.582;2023-02-10T17:19:00;22.05;;;5.45;;
72621;SDS011;60665;53.506;9.582;2023-02-10T17:21:26;15.50;;;5.72;;
72621;SDS011;60665;53.506;9.582;2023-02-10T17:23:52;16.15;;;5.45;;
72621;SDS011;60665;53.506;9.582;2023-02-10T17:26:17;16.60;;;5.63;;
72621;SDS011;60665;53.506;9.582;2023-02-10T17:28:43;15.05;;;5.88;;
72621;SDS011;60665;53.506;9.582;2023-02-10T17:31:13;19.48;;;6.15;;
72621;SDS011;60665;53.506;9.582;2023-02-10T17:33:41;19.45;;;5.90;;
72621;SDS011;60665;53.506;9.582;2023-02-10T17:36:13;17.23;;;5.90;;
72621;SDS011;60665;53.506;9.582;2023-02-10T17:38:40;15.82;;;5.85;;
72621;SDS011;60665;53.506;9.582;2023-02-10T17:41:25;16.13;;;5.85;;
72621;SDS011;60665;53.506;9.582;2023-02-10T17:43:51;15.35;;;5.80;;
72621;SDS011;60665;53.506;9.582;2023-02-10T17:46:19;20.65;;;6.55;;
72621;SDS011;60665;53.506;9.582;2023-02-10T17:48:44;19.02;;;6.75;;
72621;SDS011;60665;53.506;9.582;2023-02-10T17:51:28;14.98;;;6.22;;
72621;SDS011;60665;53.506;9.582;2023-02-10T17:53:53;15.15;;;5.80;;
72621;SDS011;60665;53.506;9.582;2023-02-10T17:56:19;17.52;;;6.65;;
72621;SDS011;60665;53.506;9.582;2023-02-10T17:58:45;16.67;;;5.97;;
72621;SDS011;60665;53.506;9.582;2023-02-10T18:01:22;16.88;;;6.13;;
72621;SDS011;60665;53.506;9.582;2023-02-10T18:03:49;16.17;;;6.75;;
72621;SDS011;60665;53.506;9.582;2023-02-10T18:06:15;14.48;;;6.20;;
72621;SDS011;60665;53.506;9.582;2023-02-10T18:08:45;22.45;;;6.57;;
72621;SDS011;60665;53.506;9.582;2023-02-10T18:11:11;12.90;;;5.55;;
72621;SDS011;60665;53.506;9.582;2023-02-10T18:13:37;14.60;;;5.78;;
72621;SDS011;60665;53.506;9.582;2023-02-10T18:16:02;14.55;;;5.88;;
72621;SDS011;60665;53.506;9.582;2023-02-10T18:18:31;17.30;;;6.60;;
72621;SDS011;60665;53.506;9.582;2023-02-10T18:20:56;17.20;;;6.55;;
72621;SDS011;60665;53.506;9.582;2023-02-10T18:23:23;19.17;;;6.40;;
72621;SDS011;60665;53.506;9.582;2023-02-10T18:25:48;16.88;;;6.28;;
72621;SDS011;60665;53.506;9.582;2023-02-10T18:28:14;17.13;;;6.72;;
72621;SDS011;60665;53.506;9.582;2023-02-10T18:30:39;18.92;;;6.85;;
72621;SDS011;60665;53.506;9.582;2023-02-10T18:33:08;24.13;;;6.75;;
72621;SDS011;60665;53.506;9.582;2023-02-10T18:35:35;16.33;;;6.63;;
72621;SDS011;60665;53.506;9.582;2023-02-10T18:38:02;15.13;;;5.85;;
72621;SDS011;60665;53.506;9.582;2023-02-10T18:40:31;20.40;;;7.43;;
72621;SDS011;60665;53.506;9.582;2023-02-10T18:42:57;19.35;;;6.55;;
72621;SDS011;60665;53.506;9.582;2023-02-10T18:45:22;17.73;;;6.95;;
72621;SDS011;60665;53.506;9.582;2023-02-10T18:47:48;20.52;;;6.80;;
72621;SDS011;60665;53.506;9.582;2023-02-10T18:50:13;21.05;;;7.15;;
72621;SDS011;60665;53.506;9.582;2023-02-10T18:52:38;16.70;;;6.57;;
72621;SDS011;60665;53.506;9.582;2023-02-10T18:55:05;17.42;;;6.70;;
72621;SDS011;60665;53.506;9.582;2023-02-10T18:57:30;23.88;;;7.15;;
72621;SDS011;60665;53.506;9.582;2023-02-10T18:59:56;21.10;;;7.43;;
72621;SDS011;60665;53.506;9.582;2023-02-10T19:02:21;24.83;;;8.00;;
72621;SDS011;60665;53.506;9.582;2023-02-10T19:04:46;25.27;;;8.15;;
72621;SDS011;60665;53.506;9.582;2023-02-10T19:07:12;21.60;;;7.88;;
72621;SDS011;60665;53.506;9.582;2023-02-10T19:09:38;19.05;;;7.78;;
72621;SDS011;60665;53.506;9.582;2023-02-10T19:12:03;24.83;;;8.10;;
72621;SDS011;60665;53.506;9.582;2023-02-10T19:14:29;23.75;;;7.93;;
72621;SDS011;60665;53.506;9.582;2023-02-10T19:16:55;22.42;;;7.72;;
72621;SDS011;60665;53.506;9.582;2023-02-10T19:19:20;21.05;;;8.23;;
72621;SDS011;60665;53.506;9.582;2023-02-10T19:21:46;21.73;;;7.57;;
72621;SDS011;60665;53.506;9.582;2023-02-10T19:24:14;22.65;;;8.07;;
72621;SDS011;60665;53.506;9.582;2023-02-10T19:27:00;22.65;;;7.72;;
72621;SDS011;60665;53.506;9.582;2023-02-10T19:29:25;24.08;;;7.65;;
72621;SDS011;60665;53.506;9.582;2023-02-10T19:31:50;28.65;;;8.25;;
72621;SDS011;60665;53.506;9.582;2023-02-10T19:34:16;23.15;;;7.85;;
72621;SDS011;60665;53.506;9.582;2023-02-10T19:36:43;25.00;;;8.00;;
72621;SDS011;60665;53.506;9.582;2023-02-10T19:39:11;27.13;;;8.40;;
72621;SDS011;60665;53.506;9.582;2023-02-10T19:41:37;22.13;;;8.27;;
72621;SDS011;60665;53.506;9.582;2023-02-10T19:44:03;18.38;;;7.90;;
72621;SDS011;60665;53.506;9.582;2023-02-10T19:46:28;25.85;;;8.43;;
72621;SDS011;60665;53.506;9.582;2023-02-10T19:48:53;23.17;;;8.77;;
72621;SDS011;60665;53.506;9.582;2023-02-10T19:51:20;24.33;;;8.70;;
72621;SDS011;60665;53.506;9.582;2023-02-10T19:53:48;24.27;;;8.65;;
72621;SDS011;60665;53.506;9.582;2023-02-10T19:56:14;30.42;;;9.05;;
72621;SDS011;60665;53.506;9.582;2023-02-10T19:58:40;27.60;;;7.90;;
72621;SDS011;60665;53.506;9.582;2023-02-10T20:01:09;26.10;;;8.95;;
72621;SDS011;60665;53.506;9.582;2023-02-10T20:03:49;24.45;;;9.50;;
72621;SDS011;60665;53.506;9.582;2023-02-10T20:06:18;23.77;;;7.80;;
72621;SDS011;60665;53.506;9.582;2023-02-10T20:08:45;26.08;;;9.63;;
72621;SDS011;60665;53.506;9.582;2023-02-10T20:11:11;31.85;;;9.25;;
72621;SDS011;60665;53.506;9.582;2023-02-10T20:13:38;29.60;;;9.27;;
72621;SDS011;60665;53.506;9.582;2023-02-10T20:16:04;27.90;;;9.35;;
72621;SDS011;60665;53.506;9.582;2023-02-10T20:18:29;31.33;;;9.85;;
72621;SDS011;60665;53.506;9.582;2023-02-10T20:20:56;32.78;;;9.70;;
72621;SDS011;60665;53.506;9.582;2023-02-10T20:23:27;31.13;;;9.50;;
72621;SDS011;60665;53.506;9.582;2023-02-10T20:25:54;27.95;;;9.38;;
72621;SDS011;60665;53.506;9.582;2023-02-10T20:28:20;31.98;;;9.85;;
72621;SDS011;60665;53.506;9.582;2023-02-10T20:30:46;32.30;;;10.23;;
72621;SDS011;60665;53.506;9.582;2023-02-10T20:33:12;26.40;;;10.13;;
72621;SDS011;60665;53.506;9.582;2023-02-10T20:35:37;26.88;;;10.15;;
72621;SDS011;60665;53.506;9.582;2023-02-10T20:38:03;27.25;;;10.38;;
72621;SDS011;60665;53.506;9.582;2023-02-10T20:40:29;30.88;;;11.20;;
72621;SDS011;60665;53.506;9.582;2023-02-10T20:42:55;30.83;;;9.63;;
72621;SDS011;60665;53.506;9.582;2023-02-10T20:45:20;31.65;;;9.48;;
72621;SDS011;60665;53.506;9.582;2023-02-10T20:47:46;32.20;;;10.68;;
72621;SDS011;60665;53.506;9.582;2023-02-10T20:50:11;33.72;;;10.95;;
72621;SDS011;60665;53.506;9.582;2023-02-10T20:52:37;31.60;;;11.55;;
72621;SDS011;60665;53.506;9.582;2023-02-10T20:55:05;30.88;;;10.70;;
72621;SDS011;60665;53.506;9.582;2023-02-10T20:57:31;30.48;;;10.02;;
72621;SDS011;60665;53.506;9.582;2023-02-10T20:59:56;32.22;;;10.60;;
72621;SDS011;60665;53.506;9.582;2023-02-10T21:02:22;30.10;;;12.05;;
72621;SDS011;60665;53.506;9.582;2023-02-10T21:04:47;35.55;;;11.35;;
72621;SDS011;60665;53.506;9.582;2023-02-10T21:07:13;31.92;;;11.10;;
72621;SDS011;60665;53.506;9.582;2023-02-10T21:09:38;31.40;;;10.88;;
72621;SDS011;60665;53.506;9.582;2023-02-10T21:12:04;36.55;;;11.80;;
72621;SDS011;60665;53.506;9.582;2023-02-10T21:14:29;31.17;;;11.23;;
72621;SDS011;60665;53.506;9.582;2023-02-10T21:16:55;33.72;;;11.20;;
72621;SDS011;60665;53.506;9.582;2023-02-10T21:19:20;30.75;;;10.48;;
72621;SDS011;60665;53.506;9.582;2023-02-10T21:21:49;32.80;;;12.70;;
72621;SDS011;60665;53.506;9.582;2023-02-10T21:24:15;34.88;;;12.70;;
72621;SDS011;60665;53.506;9.582;2023-02-10T21:26:41;31.58;;;12.13;;
72621;SDS011;60665;53.506;9.582;2023-02-10T21:29:07;33.40;;;11.93;;
72621;SDS011;60665;53.506;9.582;2023-02-10T21:31:33;36.53;;;12.60;;
72621;SDS011;60665;53.506;9.582;2023-02-10T21:34:01;33.10;;;12.43;;
